sensor_id;sensor_type;location;lat;lon;timestamp;pressure;altitude;pressure_sealevel;temperature;humidity
33191;BME280;19554;42.652;23.364;2023-05-08T00:00:16;94744.97;;;15.61;50.86
33191;BME280;19554;42.652;23.364;2023-05-08T00:02:42;94777.47;;;15.91;50.97
33191;BME280;19554;42.652;23.364;2023-05-08T00:05:07;94787.63;;;15.94;51.18
33191;BME280;19554;42.652;23.364;2023-05-08T00:07:34;94799.63;;;16.05;50.79
33191;BME280;19554;42.652;23.364;2023-05-08T00:09:59;94791.88;;;16.12;50.37
33191;BME280;19554;42.652;23.364;2023-05-08T00:12:25;94786.00;;;16.10;50.58
33191;BME280;19554;42.652;23.364;2023-05-08T00:14:50;94783.47;;;16.22;50.23
33191;BME280;19554;42.652;23.364;2023-05-08T00:17:16;94778.22;;;16.26;50.18
33191;BME280;19554;42.652;23.364;2023-05-08T00:19:41;94791.06;;;16.38;50.08
33191;BME280;19554;42.652;23.364;2023-05-08T00:22:07;94759.41;;;16.17;49.97
33191;BME280;19554;42.652;23.364;2023-05-08T00:24:32;94792.63;;;16.47;49.62
33191;BME280;19554;42.652;23.364;2023-05-08T00:26:57;94791.53;;;16.48;50.08
33191;BME280;19554;42.652;23.364;2023-05-08T00:29:23;94797.56;;;16.45;50.05
33191;BME280;19554;42.652;23.364;2023-05-08T00:31:48;94800.69;;;16.47;50.48
33191;BME280;19554;42.652;23.364;2023-05-08T00:34:13;94799.75;;;16.43;50.63
33191;BME280;19554;42.652;23.364;2023-05-08T00:36:39;94802.78;;;16.42;50.63
33191;BME280;19554;42.652;23.364;2023-05-08T00:39:04;94808.81;;;16.39;50.60
33191;BME280;19554;42.652;23.364;2023-05-08T00:41:29;94804.06;;;16.35;50.81
33191;BME280;19554;42.652;23.364;2023-05-08T00:43:55;94806.25;;;16.33;50.63
33191;BME280;19554;42.652;23.364;2023-05-08T00:46:21;94804.53;;;16.29;51.02
33191;BME280;19554;42.652;23.364;2023-05-08T00:48:46;94799.16;;;16.29;51.14
33191;BME280;19554;42.652;23.364;2023-05-08T00:51:12;94783.66;;;16.17;51.26
33191;BME280;19554;42.652;23.364;2023-05-08T00:53:41;94800.56;;;16.26;51.42
33191;BME280;19554;42.652;23.364;2023-05-08T00:56:10;94803.91;;;16.23;51.35
33191;BME280;19554;42.652;23.364;2023-05-08T00:58:36;94763.22;;;15.99;51.55
33191;BME280;19554;42.652;23.364;2023-05-08T01:01:02;94785.84;;;16.06;51.50
33191;BME280;19554;42.652;23.364;2023-05-08T01:03:30;94806.13;;;16.13;51.48
33191;BME280;19554;42.652;23.364;2023-05-08T01:05:56;94807.09;;;16.08;51.65
33191;BME280;19554;42.652;23.364;2023-05-08T01:08:22;94800.44;;;16.05;51.56
33191;BME280;19554;42.652;23.364;2023-05-08T01:16:13;94815.00;;;15.96;52.07
33191;BME280;19554;42.652;23.364;2023-05-08T01:18:55;94811.53;;;15.86;52.20
33191;BME280;19554;42.652;23.364;2023-05-08T01:21:44;94818.47;;;15.79;52.97
33191;BME280;19554;42.652;23.364;2023-05-08T01:32:50;94718.91;;;14.96;54.00
33191;BME280;19554;42.652;23.364;2023-05-08T01:35:29;94805.56;;;15.50;54.41
33191;BME280;19554;42.652;23.364;2023-05-08T01:38:05;94811.56;;;15.47;54.73
33191;BME280;19554;42.652;23.364;2023-05-08T01:43:30;94801.31;;;15.49;54.41
33191;BME280;19554;42.652;23.364;2023-05-08T01:46:04;94717.97;;;14.91;54.11
33191;BME280;19554;42.652;23.364;2023-05-08T01:48:33;94807.44;;;15.40;54.20
33191;BME280;19554;42.652;23.364;2023-05-08T01:51:16;94797.13;;;15.34;54.38
33191;BME280;19554;42.652;23.364;2023-05-08T01:53:48;94800.78;;;15.29;54.05
33191;BME280;19554;42.652;23.364;2023-05-08T01:56:19;94793.66;;;15.25;54.45
33191;BME280;19554;42.652;23.364;2023-05-08T01:58:48;94790.97;;;15.25;54.61
33191;BME280;19554;42.652;23.364;2023-05-08T02:01:17;94792.50;;;15.17;54.68
33191;BME280;19554;42.652;23.364;2023-05-08T02:03:45;94800.28;;;15.19;54.71
33191;BME280;19554;42.652;23.364;2023-05-08T02:06:12;94801.69;;;15.16;54.88
33191;BME280;19554;42.652;23.364;2023-05-08T02:08:40;94796.91;;;15.13;54.96
33191;BME280;19554;42.652;23.364;2023-05-08T02:11:06;94799.75;;;15.08;55.19
33191;BME280;19554;42.652;23.364;2023-05-08T02:13:34;94791.81;;;15.03;55.63
33191;BME280;19554;42.652;23.364;2023-05-08T02:16:01;94758.22;;;14.74;55.38
33191;BME280;19554;42.652;23.364;2023-05-08T02:18:28;94762.63;;;14.70;55.81
33191;BME280;19554;42.652;23.364;2023-05-08T02:20:58;94765.41;;;14.65;55.72
33191;BME280;19554;42.652;23.364;2023-05-08T02:23:25;94810.88;;;14.84;56.30
33191;BME280;19554;42.652;23.364;2023-05-08T02:25:51;94809.09;;;14.79;56.24
33191;BME280;19554;42.652;23.364;2023-05-08T02:28:18;94795.31;;;14.72;56.29
33191;BME280;19554;42.652;23.364;2023-05-08T02:30:46;94798.97;;;14.76;56.63
33191;BME280;19554;42.652;23.364;2023-05-08T02:33:13;94807.19;;;14.71;57.21
33191;BME280;19554;42.652;23.364;2023-05-08T02:35:43;94805.78;;;14.74;57.48
33191;BME280;19554;42.652;23.364;2023-05-08T02:38:09;94802.16;;;14.78;57.41
33191;BME280;19554;42.652;23.364;2023-05-08T02:40:44;94804.06;;;14.78;57.33
33191;BME280;19554;42.652;23.364;2023-05-08T02:43:10;94809.59;;;14.81;57.37
33191;BME280;19554;42.652;23.364;2023-05-08T02:45:42;94786.03;;;14.78;56.99
33191;BME280;19554;42.652;23.364;2023-05-08T02:48:13;94810.41;;;14.90;56.41
33191;BME280;19554;42.652;23.364;2023-05-08T02:53:54;94814.22;;;14.89;56.55
33191;BME280;19554;42.652;23.364;2023-05-08T02:56:36;94810.56;;;14.85;56.73
33191;BME280;19554;42.652;23.364;2023-05-08T02:59:21;94814.66;;;14.83;56.78
33191;BME280;19554;42.652;23.364;2023-05-08T03:01:58;94810.72;;;14.80;56.66
33191;BME280;19554;42.652;23.364;2023-05-08T03:04:33;94802.59;;;14.72;56.79
33191;BME280;19554;42.652;23.364;2023-05-08T03:07:02;94813.84;;;14.74;56.42
33191;BME280;19554;42.652;23.364;2023-05-08T03:09:54;94801.19;;;14.74;56.60
33191;BME280;19554;42.652;23.364;2023-05-08T03:12:23;94817.13;;;14.71;56.25
33191;BME280;19554;42.652;23.364;2023-05-08T03:14:56;94805.09;;;14.68;56.43
33191;BME280;19554;42.652;23.364;2023-05-08T03:17:25;94816.16;;;14.66;56.52
33191;BME280;19554;42.652;23.364;2023-05-08T03:19:55;94784.22;;;14.42;56.39
33191;BME280;19554;42.652;23.364;2023-05-08T03:22:22;94817.56;;;14.64;56.56
33191;BME280;19554;42.652;23.364;2023-05-08T03:24:50;94813.44;;;14.58;56.84
33191;BME280;19554;42.652;23.364;2023-05-08T03:27:18;94824.53;;;14.65;56.84
33191;BME280;19554;42.652;23.364;2023-05-08T03:29:44;94769.97;;;14.33;56.90
33191;BME280;19554;42.652;23.364;2023-05-08T03:32:10;94807.78;;;14.68;56.84
33191;BME280;19554;42.652;23.364;2023-05-08T03:34:38;94766.31;;;14.52;56.18
33191;BME280;19554;42.652;23.364;2023-05-08T03:37:04;94827.03;;;14.92;56.37
33191;BME280;19554;42.652;23.364;2023-05-08T03:39:30;94834.97;;;14.98;56.31
33191;BME280;19554;42.652;23.364;2023-05-08T03:41:55;94810.53;;;15.08;55.81
33191;BME280;19554;42.652;23.364;2023-05-08T03:44:21;94829.41;;;15.34;55.64
33191;BME280;19554;42.652;23.364;2023-05-08T03:46:47;94827.41;;;15.57;55.25
33191;BME280;19554;42.652;23.364;2023-05-08T03:49:16;94824.63;;;15.79;54.34
33191;BME280;19554;42.652;23.364;2023-05-08T03:51:42;94821.81;;;16.02;53.69
33191;BME280;19554;42.652;23.364;2023-05-08T03:54:07;94813.28;;;16.17;53.02
33191;BME280;19554;42.652;23.364;2023-05-08T03:56:32;94820.22;;;16.35;52.39
33191;BME280;19554;42.652;23.364;2023-05-08T03:59:16;94822.56;;;16.63;51.41
33191;BME280;19554;42.652;23.364;2023-05-08T04:02:08;94833.16;;;16.86;50.86
33191;BME280;19554;42.652;23.364;2023-05-08T04:04:40;94835.69;;;16.91;50.79
33191;BME280;19554;42.652;23.364;2023-05-08T04:07:13;94837.53;;;16.99;50.94
33191;BME280;19554;42.652;23.364;2023-05-08T04:13:06;94839.44;;;17.07;50.56
33191;BME280;19554;42.652;23.364;2023-05-08T04:15:33;94841.31;;;17.15;50.61
33191;BME280;19554;42.652;23.364;2023-05-08T04:18:05;94847.63;;;17.19;50.34
33191;BME280;19554;42.652;23.364;2023-05-08T04:20:31;94786.06;;;16.83;50.07
33191;BME280;19554;42.652;23.364;2023-05-08T04:22:58;94852.75;;;17.12;50.04
33191;BME280;19554;42.652;23.364;2023-05-08T04:25:24;94849.00;;;16.96;50.42
33191;BME280;19554;42.652;23.364;2023-05-08T04:27:50;94844.59;;;16.83;50.74
33191;BME280;19554;42.652;23.364;2023-05-08T04:30:17;94859.47;;;16.71;51.31
33191;BME280;19554;42.652;23.364;2023-05-08T04:32:43;94871.41;;;16.62;51.67
33191;BME280;19554;42.652;23.364;2023-05-08T04:35:09;94858.22;;;16.60;51.72
33191;BME280;19554;42.652;23.364;2023-05-08T04:37:35;94852.22;;;16.46;52.03
33191;BME280;19554;42.652;23.364;2023-05-08T04:40:00;94770.00;;;15.96;52.52
33191;BME280;19554;42.652;23.364;2023-05-08T04:42:26;94844.59;;;16.30;52.82
33191;BME280;19554;42.652;23.364;2023-05-08T04:44:53;94833.69;;;16.09;53.72
33191;BME280;19554;42.652;23.364;2023-05-08T04:47:18;94838.75;;;16.46;53.31
33191;BME280;19554;42.652;23.364;2023-05-08T04:49:44;94841.72;;;16.70;52.43
33191;BME280;19554;42.652;23.364;2023-05-08T04:52:10;94827.28;;;16.92;50.77
33191;BME280;19554;42.652;23.364;2023-05-08T04:54:35;94834.56;;;16.92;50.03
33191;BME280;19554;42.652;23.364;2023-05-08T04:57:00;94840.31;;;16.47;51.81
33191;BME280;19554;42.652;23.364;2023-05-08T04:59:26;94822.59;;;16.28;53.49
33191;BME280;19554;42.652;23.364;2023-05-08T05:01:53;94817.47;;;16.70;52.08
33191;BME280;19554;42.652;23.364;2023-05-08T05:04:20;94831.72;;;16.88;51.93
33191;BME280;19554;42.652;23.364;2023-05-08T05:06:46;94778.94;;;16.78;50.68
33191;BME280;19554;42.652;23.364;2023-05-08T05:09:11;94826.94;;;17.41;50.03
33191;BME280;19554;42.652;23.364;2023-05-08T05:11:36;94829.06;;;17.56;49.22
33191;BME280;19554;42.652;23.364;2023-05-08T05:14:02;94812.19;;;17.29;50.46
33191;BME280;19554;42.652;23.364;2023-05-08T05:16:27;94821.22;;;17.63;49.26
33191;BME280;19554;42.652;23.364;2023-05-08T05:18:52;94821.34;;;17.75;49.23
33191;BME280;19554;42.652;23.364;2023-05-08T05:21:18;94820.63;;;17.87;48.44
33191;BME280;19554;42.652;23.364;2023-05-08T05:23:44;94821.84;;;17.69;48.71
33191;BME280;19554;42.652;23.364;2023-05-08T05:26:09;94817.44;;;17.35;49.56
33191;BME280;19554;42.652;23.364;2023-05-08T05:28:34;94822.91;;;17.17;50.06
33191;BME280;19554;42.652;23.364;2023-05-08T05:31:00;94819.28;;;17.13;50.27
33191;BME280;19554;42.652;23.364;2023-05-08T05:33:25;94821.75;;;17.27;50.55
33191;BME280;19554;42.652;23.364;2023-05-08T05:35:51;94817.63;;;17.59;49.95
33191;BME280;19554;42.652;23.364;2023-05-08T05:38:16;94825.53;;;17.64;49.68
33191;BME280;19554;42.652;23.364;2023-05-08T05:40:42;94820.72;;;17.79;49.15
33191;BME280;19554;42.652;23.364;2023-05-08T05:43:07;94746.63;;;17.38;49.16
33191;BME280;19554;42.652;23.364;2023-05-08T05:45:33;94820.84;;;18.03;48.58
33191;BME280;19554;42.652;23.364;2023-05-08T05:47:58;94826.91;;;18.21;47.81
33191;BME280;19554;42.652;23.364;2023-05-08T05:50:23;94823.88;;;18.22;48.16
33191;BME280;19554;42.652;23.364;2023-05-08T05:52:49;94824.66;;;18.44;47.49
33191;BME280;19554;42.652;23.364;2023-05-08T05:55:14;94822.03;;;18.68;46.99
33191;BME280;19554;42.652;23.364;2023-05-08T05:57:40;94820.31;;;18.85;46.09
33191;BME280;19554;42.652;23.364;2023-05-08T06:00:06;94817.84;;;18.92;45.83
33191;BME280;19554;42.652;23.364;2023-05-08T06:02:31;94808.34;;;18.86;46.14
33191;BME280;19554;42.652;23.364;2023-05-08T06:04:59;94761.69;;;18.77;45.76
33191;BME280;19554;42.652;23.364;2023-05-08T06:07:25;94801.66;;;19.29;45.10
33191;BME280;19554;42.652;23.364;2023-05-08T06:09:50;94774.59;;;19.41;44.66
33191;BME280;19554;42.652;23.364;2023-05-08T06:12:17;94793.97;;;19.92;43.97
33191;BME280;19554;42.652;23.364;2023-05-08T06:14:43;94798.63;;;20.20;42.93
33191;BME280;19554;42.652;23.364;2023-05-08T06:17:08;94787.56;;;19.60;43.59
33191;BME280;19554;42.652;23.364;2023-05-08T06:19:34;94797.59;;;19.35;44.85
33191;BME280;19554;42.652;23.364;2023-05-08T06:21:59;94800.09;;;19.40;45.20
33191;BME280;19554;42.652;23.364;2023-05-08T06:24:24;94791.03;;;19.48;45.45
33191;BME280;19554;42.652;23.364;2023-05-08T06:26:50;94792.41;;;19.54;44.86
33191;BME280;19554;42.652;23.364;2023-05-08T06:29:15;94783.72;;;19.61;44.71
33191;BME280;19554;42.652;23.364;2023-05-08T06:31:40;94801.00;;;19.69;44.53
33191;BME280;19554;42.652;23.364;2023-05-08T06:34:06;94796.94;;;19.62;44.97
33191;BME280;19554;42.652;23.364;2023-05-08T06:36:32;94800.41;;;19.75;44.90
33191;BME280;19554;42.652;23.364;2023-05-08T06:38:57;94801.56;;;19.50;44.56
33191;BME280;19554;42.652;23.364;2023-05-08T06:41:22;94798.72;;;19.58;44.76
33191;BME280;19554;42.652;23.364;2023-05-08T06:43:48;94798.06;;;19.49;45.22
33191;BME280;19554;42.652;23.364;2023-05-08T06:46:13;94777.66;;;19.15;45.76
33191;BME280;19554;42.652;23.364;2023-05-08T06:48:39;94772.78;;;19.08;45.91
33191;BME280;19554;42.652;23.364;2023-05-08T06:51:04;94805.72;;;19.47;46.61
33191;BME280;19554;42.652;23.364;2023-05-08T06:53:30;94771.91;;;19.29;45.77
33191;BME280;19554;42.652;23.364;2023-05-08T06:55:55;94793.06;;;19.88;45.44
33191;BME280;19554;42.652;23.364;2023-05-08T06:58:24;94799.47;;;19.96;44.76
33191;BME280;19554;42.652;23.364;2023-05-08T07:00:49;94800.69;;;20.10;44.57
33191;BME280;19554;42.652;23.364;2023-05-08T07:03:15;94803.22;;;19.91;44.67
33191;BME280;19554;42.652;23.364;2023-05-08T07:05:40;94793.75;;;19.85;44.62
33191;BME280;19554;42.652;23.364;2023-05-08T07:08:06;94798.69;;;19.95;44.64
33191;BME280;19554;42.652;23.364;2023-05-08T07:10:31;94804.84;;;19.80;45.28
33191;BME280;19554;42.652;23.364;2023-05-08T07:12:56;94798.53;;;19.63;45.04
33191;BME280;19554;42.652;23.364;2023-05-08T07:15:22;94801.22;;;19.63;45.19
33191;BME280;19554;42.652;23.364;2023-05-08T07:17:47;94807.50;;;19.55;45.22
33191;BME280;19554;42.652;23.364;2023-05-08T07:20:13;94810.78;;;19.36;45.70
33191;BME280;19554;42.652;23.364;2023-05-08T07:22:38;94811.13;;;19.35;45.60
33191;BME280;19554;42.652;23.364;2023-05-08T07:25:04;94779.56;;;19.14;44.95
33191;BME280;19554;42.652;23.364;2023-05-08T07:27:30;94801.66;;;19.53;44.59
33191;BME280;19554;42.652;23.364;2023-05-08T07:29:55;94810.47;;;19.50;44.66
33191;BME280;19554;42.652;23.364;2023-05-08T07:32:22;94801.00;;;19.56;44.86
33191;BME280;19554;42.652;23.364;2023-05-08T07:34:48;94799.53;;;19.71;43.83
33191;BME280;19554;42.652;23.364;2023-05-08T07:37:13;94752.34;;;19.48;43.89
33191;BME280;19554;42.652;23.364;2023-05-08T07:39:39;94805.25;;;19.82;43.90
33191;BME280;19554;42.652;23.364;2023-05-08T07:42:04;94813.84;;;19.72;44.23
33191;BME280;19554;42.652;23.364;2023-05-08T07:44:31;94815.41;;;19.85;44.43
33191;BME280;19554;42.652;23.364;2023-05-08T07:46:57;94805.69;;;19.96;44.09
33191;BME280;19554;42.652;23.364;2023-05-08T07:49:23;94804.13;;;19.95;44.31
33191;BME280;19554;42.652;23.364;2023-05-08T07:51:48;94799.75;;;20.19;44.10
33191;BME280;19554;42.652;23.364;2023-05-08T07:54:14;94801.69;;;20.46;42.96
33191;BME280;19554;42.652;23.364;2023-05-08T07:56:39;94812.53;;;20.46;42.40
33191;BME280;19554;42.652;23.364;2023-05-08T07:59:04;94788.06;;;20.02;42.78
33191;BME280;19554;42.652;23.364;2023-05-08T08:01:30;94818.66;;;20.43;42.77
33191;BME280;19554;42.652;23.364;2023-05-08T08:03:55;94810.88;;;20.70;42.49
33191;BME280;19554;42.652;23.364;2023-05-08T08:06:20;94823.25;;;20.83;41.44
33191;BME280;19554;42.652;23.364;2023-05-08T08:08:46;94811.53;;;20.79;40.84
33191;BME280;19554;42.652;23.364;2023-05-08T08:11:11;94783.84;;;20.45;41.33
33191;BME280;19554;42.652;23.364;2023-05-08T08:13:37;94815.22;;;20.87;41.34
33191;BME280;19554;42.652;23.364;2023-05-08T08:16:02;94731.25;;;20.34;41.01
33191;BME280;19554;42.652;23.364;2023-05-08T08:18:33;94818.91;;;21.26;41.21
33191;BME280;19554;42.652;23.364;2023-05-08T08:20:59;94817.44;;;21.60;40.67
33191;BME280;19554;42.652;23.364;2023-05-08T08:23:25;94800.25;;;21.72;39.87
33191;BME280;19554;42.652;23.364;2023-05-08T08:25:50;94810.81;;;21.93;39.35
33191;BME280;19554;42.652;23.364;2023-05-08T08:28:18;94812.47;;;21.97;39.08
33191;BME280;19554;42.652;23.364;2023-05-08T08:30:43;94810.59;;;21.82;39.78
33191;BME280;19554;42.652;23.364;2023-05-08T08:33:09;94811.28;;;21.79;39.67
33191;BME280;19554;42.652;23.364;2023-05-08T08:35:34;94797.00;;;21.66;39.83
33191;BME280;19554;42.652;23.364;2023-05-08T08:38:00;94806.94;;;21.59;40.04
33191;BME280;19554;42.652;23.364;2023-05-08T08:40:25;94805.19;;;21.50;40.76
33191;BME280;19554;42.652;23.364;2023-05-08T08:42:50;94712.09;;;21.02;40.65
33191;BME280;19554;42.652;23.364;2023-05-08T08:45:16;94745.59;;;21.26;41.03
33191;BME280;19554;42.652;23.364;2023-05-08T08:47:43;94793.09;;;21.48;40.80
33191;BME280;19554;42.652;23.364;2023-05-08T08:50:12;94794.88;;;21.40;41.54
33191;BME280;19554;42.652;23.364;2023-05-08T08:52:42;94786.63;;;21.37;41.62
33191;BME280;19554;42.652;23.364;2023-05-08T08:55:14;94780.94;;;21.42;41.69
33191;BME280;19554;42.652;23.364;2023-05-08T08:57:47;94782.16;;;21.44;42.16
33191;BME280;19554;42.652;23.364;2023-05-08T09:00:16;94748.78;;;20.96;42.80
33191;BME280;19554;42.652;23.364;2023-05-08T09:02:43;94782.00;;;21.37;42.98
33191;BME280;19554;42.652;23.364;2023-05-08T09:05:09;94766.91;;;21.24;42.83
33191;BME280;19554;42.652;23.364;2023-05-08T09:07:36;94733.56;;;20.76;43.25
33191;BME280;19554;42.652;23.364;2023-05-08T09:10:04;94756.81;;;20.77;43.59
33191;BME280;19554;42.652;23.364;2023-05-08T09:12:30;94749.53;;;20.37;44.93
33191;BME280;19554;42.652;23.364;2023-05-08T09:14:55;94758.72;;;20.32;45.00
33191;BME280;19554;42.652;23.364;2023-05-08T09:17:21;94640.13;;;19.45;45.44
33191;BME280;19554;42.652;23.364;2023-05-08T09:19:48;94750.28;;;20.22;45.64
33191;BME280;19554;42.652;23.364;2023-05-08T09:22:14;94749.22;;;20.10;46.29
33191;BME280;19554;42.652;23.364;2023-05-08T09:24:59;94750.31;;;20.09;46.62
33191;BME280;19554;42.652;23.364;2023-05-08T09:27:27;94735.88;;;20.18;46.51
33191;BME280;19554;42.652;23.364;2023-05-08T09:30:13;94719.78;;;20.25;45.82
33191;BME280;19554;42.652;23.364;2023-05-08T09:32:43;94737.31;;;20.43;45.52
33191;BME280;19554;42.652;23.364;2023-05-08T09:35:10;94726.72;;;20.38;45.93
33191;BME280;19554;42.652;23.364;2023-05-08T09:37:40;94722.22;;;20.30;45.61
33191;BME280;19554;42.652;23.364;2023-05-08T09:40:13;94727.25;;;20.44;45.57
33191;BME280;19554;42.652;23.364;2023-05-08T09:42:39;94729.19;;;20.43;45.75
33191;BME280;19554;42.652;23.364;2023-05-08T09:45:05;94728.03;;;20.44;45.53
33191;BME280;19554;42.652;23.364;2023-05-08T09:47:30;94719.09;;;20.28;46.03
33191;BME280;19554;42.652;23.364;2023-05-08T09:50:00;94742.63;;;20.40;45.71
33191;BME280;19554;42.652;23.364;2023-05-08T09:52:27;94743.59;;;20.31;45.97
33191;BME280;19554;42.652;23.364;2023-05-08T09:57:29;94751.19;;;20.26;46.90
33191;BME280;19554;42.652;23.364;2023-05-08T10:00:07;94750.72;;;20.24;46.96
33191;BME280;19554;42.652;23.364;2023-05-08T10:02:35;94613.59;;;19.23;47.55
33191;BME280;19554;42.652;23.364;2023-05-08T10:05:01;94747.19;;;20.35;47.31
33191;BME280;19554;42.652;23.364;2023-05-08T10:07:34;94737.53;;;20.50;46.74
33191;BME280;19554;42.652;23.364;2023-05-08T10:10:04;94747.63;;;20.66;46.85
33191;BME280;19554;42.652;23.364;2023-05-08T10:12:31;94741.97;;;20.87;45.97
33191;BME280;19554;42.652;23.364;2023-05-08T10:14:57;94726.22;;;20.92;45.29
33191;BME280;19554;42.652;23.364;2023-05-08T10:17:39;94738.19;;;21.07;46.07
33191;BME280;19554;42.652;23.364;2023-05-08T10:20:09;94732.47;;;21.28;45.48
33191;BME280;19554;42.652;23.364;2023-05-08T10:22:36;94734.59;;;21.50;44.55
33191;BME280;19554;42.652;23.364;2023-05-08T10:25:02;94714.97;;;21.41;44.48
33191;BME280;19554;42.652;23.364;2023-05-08T10:27:47;94723.28;;;21.48;44.83
33191;BME280;19554;42.652;23.364;2023-05-08T10:30:18;94724.59;;;21.55;44.69
33191;BME280;19554;42.652;23.364;2023-05-08T10:32:44;94719.06;;;21.51;44.25
33191;BME280;19554;42.652;23.364;2023-05-08T10:35:13;94656.69;;;21.03;44.74
33191;BME280;19554;42.652;23.364;2023-05-08T10:37:39;94716.63;;;21.46;45.05
33191;BME280;19554;42.652;23.364;2023-05-08T10:40:07;94706.00;;;21.57;45.11
33191;BME280;19554;42.652;23.364;2023-05-08T10:42:33;94718.13;;;21.79;44.42
33191;BME280;19554;42.652;23.364;2023-05-08T10:45:03;94710.69;;;21.95;43.87
33191;BME280;19554;42.652;23.364;2023-05-08T10:47:53;94705.25;;;21.95;43.34
33191;BME280;19554;42.652;23.364;2023-05-08T10:53:33;94702.88;;;21.93;44.02
33191;BME280;19554;42.652;23.364;2023-05-08T10:56:01;94694.47;;;21.98;43.71
33191;BME280;19554;42.652;23.364;2023-05-08T10:58:33;94696.88;;;22.04;44.03
33191;BME280;19554;42.652;23.364;2023-05-08T11:03:29;94696.22;;;21.91;44.22
33191;BME280;19554;42.652;23.364;2023-05-08T11:05:56;94686.94;;;21.72;44.25
33191;BME280;19554;42.652;23.364;2023-05-08T11:08:24;94692.56;;;21.64;44.98
33191;BME280;19554;42.652;23.364;2023-05-08T11:13:51;94681.56;;;21.76;44.72
33191;BME280;19554;42.652;23.364;2023-05-08T11:16:17;94682.06;;;21.62;44.94
33191;BME280;19554;42.652;23.364;2023-05-08T11:19:15;94676.53;;;21.23;45.73
33191;BME280;19554;42.652;23.364;2023-05-08T11:24:49;94676.53;;;21.23;44.90
33191;BME280;19554;42.652;23.364;2023-05-08T11:27:16;94606.34;;;21.06;44.88
33191;BME280;19554;42.652;23.364;2023-05-08T11:29:42;94659.66;;;21.49;44.89
33191;BME280;19554;42.652;23.364;2023-05-08T11:32:09;94652.06;;;21.39;45.04
33191;BME280;19554;42.652;23.364;2023-05-08T11:37:19;94646.56;;;21.71;44.42
33191;BME280;19554;42.652;23.364;2023-05-08T11:39:48;94643.41;;;21.88;44.13
33191;BME280;19554;42.652;23.364;2023-05-08T11:45:04;94631.06;;;21.94;43.45
33191;BME280;19554;42.652;23.364;2023-05-08T11:47:43;94553.31;;;21.28;44.08
33191;BME280;19554;42.652;23.364;2023-05-08T11:50:10;94626.78;;;21.74;44.01
33191;BME280;19554;42.652;23.364;2023-05-08T11:52:37;94619.66;;;21.85;43.67
33191;BME280;19554;42.652;23.364;2023-05-08T11:55:04;94599.28;;;21.75;43.37
33191;BME280;19554;42.652;23.364;2023-05-08T11:57:30;94619.94;;;21.80;43.29
33191;BME280;19554;42.652;23.364;2023-05-08T11:59:56;94533.19;;;20.94;43.62
33191;BME280;19554;42.652;23.364;2023-05-08T12:02:42;94597.66;;;21.51;43.66
33191;BME280;19554;42.652;23.364;2023-05-08T12:05:08;94598.50;;;21.75;43.35
33191;BME280;19554;42.652;23.364;2023-05-08T12:07:44;94588.75;;;21.93;42.78
33191;BME280;19554;42.652;23.364;2023-05-08T12:10:11;94593.59;;;22.04;42.16
33191;BME280;19554;42.652;23.364;2023-05-08T12:12:40;94593.88;;;22.18;41.91
33191;BME280;19554;42.652;23.364;2023-05-08T12:15:13;94594.78;;;22.26;41.67
33191;BME280;19554;42.652;23.364;2023-05-08T12:17:39;94596.00;;;22.28;41.46
33191;BME280;19554;42.652;23.364;2023-05-08T12:20:15;94585.00;;;22.44;41.35
33191;BME280;19554;42.652;23.364;2023-05-08T12:22:42;94584.06;;;22.59;41.29
33191;BME280;19554;42.652;23.364;2023-05-08T12:25:15;94587.38;;;22.72;41.36
33191;BME280;19554;42.652;23.364;2023-05-08T12:27:41;94550.28;;;22.60;40.62
33191;BME280;19554;42.652;23.364;2023-05-08T12:30:09;94573.69;;;22.65;40.89
33191;BME280;19554;42.652;23.364;2023-05-08T12:32:41;94582.47;;;22.81;40.58
33191;BME280;19554;42.652;23.364;2023-05-08T12:35:08;94584.00;;;22.79;40.22
33191;BME280;19554;42.652;23.364;2023-05-08T12:37:34;94580.38;;;22.71;40.09
33191;BME280;19554;42.652;23.364;2023-05-08T12:39:59;94577.59;;;22.67;40.10
33191;BME280;19554;42.652;23.364;2023-05-08T12:42:44;94574.34;;;22.58;40.49
33191;BME280;19554;42.652;23.364;2023-05-08T12:45:21;94532.25;;;22.26;40.69
33191;BME280;19554;42.652;23.364;2023-05-08T12:47:48;94576.72;;;22.60;40.55
33191;BME280;19554;42.652;23.364;2023-05-08T12:50:15;94575.25;;;22.66;40.62
33191;BME280;19554;42.652;23.364;2023-05-08T12:52:42;94574.00;;;22.60;40.04
33191;BME280;19554;42.652;23.364;2023-05-08T12:57:49;94568.34;;;22.72;40.45
33191;BME280;19554;42.652;23.364;2023-05-08T13:00:16;94565.94;;;22.67;40.54
33191;BME280;19554;42.652;23.364;2023-05-08T13:02:55;94563.63;;;22.69;40.24
33191;BME280;19554;42.652;23.364;2023-05-08T13:05:21;94543.31;;;22.63;40.66
33191;BME280;19554;42.652;23.364;2023-05-08T13:07:48;94561.38;;;22.75;41.07
33191;BME280;19554;42.652;23.364;2023-05-08T13:10:14;94550.50;;;22.75;40.43
33191;BME280;19554;42.652;23.364;2023-05-08T13:12:39;94542.47;;;22.59;40.28
33191;BME280;19554;42.652;23.364;2023-05-08T13:15:06;94565.09;;;22.63;41.11
33191;BME280;19554;42.652;23.364;2023-05-08T13:17:32;94583.13;;;21.09;47.30
33191;BME280;19554;42.652;23.364;2023-05-08T13:19:57;94594.94;;;20.49;50.49
33191;BME280;19554;42.652;23.364;2023-05-08T13:22:23;94598.22;;;19.95;51.92
33191;BME280;19554;42.652;23.364;2023-05-08T13:24:51;94589.53;;;19.74;52.59
33191;BME280;19554;42.652;23.364;2023-05-08T13:27:16;94604.34;;;19.52;53.33
33191;BME280;19554;42.652;23.364;2023-05-08T13:29:42;94599.78;;;19.40;53.86
33191;BME280;19554;42.652;23.364;2023-05-08T13:32:07;94604.41;;;19.39;53.58
33191;BME280;19554;42.652;23.364;2023-05-08T13:34:33;94597.28;;;19.35;53.84
33191;BME280;19554;42.652;23.364;2023-05-08T13:36:58;94603.44;;;19.32;54.24
33191;BME280;19554;42.652;23.364;2023-05-08T13:39:23;94542.56;;;18.61;55.15